Time;durP1;ratioP1;P1;durP2;ratioP2;P2;SDS_P1;SDS_P2;PMS_P1;PMS_P2;Temp;Humidity;BMP_temperature;BMP_pressure;BME280_temperature;BME280_humidity;BME280_pressure;Samples;Min_cycle;Max_cycle;Signal;HPM_P1;HPM_P2
2021/04/07 00:00:33;;;;;;;5.95;4.80;;;0.60;99.90;;;;;;6216784;28;20037;-78
2021/04/07 00:03:34;;;;;;;5.43;4.68;;;0.30;99.90;;;;;;6216641;28;20468;-78
2021/04/07 00:06:35;;;;;;;6.80;4.40;;;1.20;99.90;;;;;;6216601;28;20057;-78
2021/04/07 00:09:35;;;;;;;5.97;4.13;;;0.40;99.90;;;;;;6209610;28;20041;-78
2021/04/07 00:12:36;;;;;;;4.82;4.32;;;1.60;99.90;;;;;;6218235;28;20034;-78
2021/04/07 00:15:37;;;;;;;6.65;4.38;;;0.30;99.90;;;;;;6214593;28;20405;-78
2021/04/07 00:18:38;;;;;;;6.63;4.30;;;0.40;99.90;;;;;;6216468;28;20034;-78
2021/04/07 00:21:38;;;;;;;6.40;5.10;;;0.60;99.90;;;;;;6217813;28;20113;-78
2021/04/07 00:24:39;;;;;;;7.35;4.65;;;0.60;99.90;;;;;;6216719;28;20030;-78
2021/04/07 00:27:41;;;;;;;6.00;4.63;;;0.70;99.90;;;;;;6216286;28;20392;-78
2021/04/07 00:30:42;;;;;;;5.85;4.55;;;0.10;99.90;;;;;;6185350;28;20034;-78
2021/04/07 00:33:42;;;;;;;8.75;5.47;;;0.00;99.90;;;;;;6216435;28;20084;-78
2021/04/07 00:36:43;;;;;;;6.57;5.47;;;0.10;99.90;;;;;;6216186;28;20065;-78
2021/04/07 00:39:43;;;;;;;9.70;5.07;;;1.10;99.90;;;;;;6216080;28;20496;-78
2021/04/07 00:42:45;;;;;;;6.15;5.05;;;0.90;99.90;;;;;;6199947;28;20026;-78
2021/04/07 00:45:46;;;;;;;6.37;4.83;;;0.20;99.90;;;;;;6185262;28;20022;-78
2021/04/07 00:48:46;;;;;;;5.95;4.78;;;1.40;99.90;;;;;;6217657;28;20076;-78
2021/04/07 00:51:47;;;;;;;6.75;4.80;;;0.00;99.90;;;;;;6216098;28;20068;-78
2021/04/07 00:54:48;;;;;;;6.75;4.88;;;0.00;99.90;;;;;;6216134;28;20084;-78
2021/04/07 00:57:48;;;;;;;5.72;4.97;;;0.00;99.90;;;;;;6210349;28;20026;-78
2021/04/07 01:00:49;;;;;;;8.80;5.18;;;0.00;99.90;;;;;;6215655;28;20034;-78
2021/04/07 01:03:49;;;;;;;6.82;5.30;;;0.10;99.90;;;;;;6199857;28;20049;-78
2021/04/07 01:06:50;;;;;;;6.93;5.13;;;0.00;99.90;;;;;;6200138;28;20030;-77
2021/04/07 01:09:51;;;;;;;6.85;5.40;;;;;;;;;;6219246;28;20049;-78
2021/04/07 01:12:52;;;;;;;7.30;5.43;;;;;;;;;;6222232;28;20026;-78
2021/04/07 01:15:54;;;;;;;6.38;5.00;;;0.00;99.90;;;;;;6203767;28;20674;-78
2021/04/07 01:18:55;;;;;;;6.68;5.50;;;;;;;;;;6188718;28;20038;-78
2021/04/07 01:21:55;;;;;;;5.93;5.05;;;0.00;99.90;;;;;;6220158;28;20065;-78
2021/04/07 01:24:56;;;;;;;9.10;5.53;;;;;;;;;;6220299;28;20064;-78
2021/04/07 01:27:57;;;;;;;5.88;5.05;;;;;;;;;;6219830;28;20026;-78
2021/04/07 01:30:59;;;;;;;8.68;5.50;;;0.10;99.90;;;;;;6220347;28;20068;-78
2021/04/07 01:34:00;;;;;;;9.70;5.85;;;;;;;;;;6221771;28;20034;-78
2021/04/07 01:37:01;;;;;;;7.03;5.20;;;0.10;99.90;;;;;;6221986;28;20041;-78
2021/04/07 01:40:03;;;;;;;5.80;5.20;;;0.00;99.90;;;;;;6219762;28;20041;-78
2021/04/07 01:43:03;;;;;;;6.32;5.60;;;0.10;99.90;;;;;;6219292;28;20034;-78
2021/04/07 01:46:04;;;;;;;6.45;5.15;;;0.10;99.90;;;;;;6219464;28;20041;-78
2021/04/07 01:49:06;;;;;;;6.72;5.47;;;0.10;99.90;;;;;;6219115;28;20088;-78
2021/04/07 01:52:07;;;;;;;7.25;5.97;;;1.40;99.90;;;;;;6219726;28;20030;-78
2021/04/07 01:55:08;;;;;;;7.45;5.80;;;-0.10;99.90;;;;;;6219342;28;20139;-78
2021/04/07 01:58:09;;;;;;;8.40;6.05;;;0.00;99.90;;;;;;6195238;28;20037;-78
2021/04/07 02:01:09;;;;;;;7.45;6.03;;;0.00;99.90;;;;;;6219070;28;20038;-79
2021/04/07 02:04:10;;;;;;;10.55;6.55;;;-0.10;99.90;;;;;;6221237;28;20034;-78
2021/04/07 02:07:12;;;;;;;7.28;6.22;;;1.10;99.90;;;;;;6187723;28;20033;-78
2021/04/07 02:10:13;;;;;;;8.70;6.18;;;0.30;99.90;;;;;;6220806;28;20965;-78
2021/04/07 02:13:13;;;;;;;7.88;6.80;;;0.60;99.90;;;;;;6219139;28;20041;-78
2021/04/07 02:16:14;;;;;;;7.13;6.43;;;0.00;99.90;;;;;;6220888;28;20037;-78
2021/04/07 02:19:15;;;;;;;8.82;6.05;;;1.50;99.90;;;;;;6219091;28;20026;-78
2021/04/07 02:22:17;;;;;;;9.02;6.32;;;0.20;99.90;;;;;;6218462;28;20121;-78
2021/04/07 02:25:17;;;;;;;10.63;5.80;;;-0.10;99.90;;;;;;6218558;28;20084;-78
2021/04/07 02:28:18;;;;;;;7.88;6.32;;;0.60;99.90;;;;;;6218788;28;20030;-78
2021/04/07 02:31:19;;;;;;;8.25;6.65;;;1.50;99.90;;;;;;6218408;28;20095;-78
2021/04/07 02:34:19;;;;;;;9.05;5.80;;;0.80;99.90;;;;;;6220316;28;20053;-78
2021/04/07 02:37:20;;;;;;;7.38;5.72;;;0.50;99.90;;;;;;6186378;28;20034;-78
2021/04/07 02:40:20;;;;;;;7.47;5.88;;;1.00;99.90;;;;;;6186434;28;20058;-78
2021/04/07 02:43:21;;;;;;;6.00;5.05;;;1.40;99.90;;;;;;6220977;28;20362;-78
2021/04/07 02:46:22;;;;;;;9.95;5.18;;;1.10;99.90;;;;;;6219877;28;20036;-78
2021/04/07 02:49:23;;;;;;;8.45;6.30;;;-0.10;99.90;;;;;;6217966;28;20129;-78
2021/04/07 02:52:24;;;;;;;6.63;5.57;;;0.10;99.90;;;;;;6218369;28;20488;-78
2021/04/07 02:55:24;;;;;;;8.10;6.00;;;-0.10;99.90;;;;;;6219888;28;20470;-78
2021/04/07 02:58:25;;;;;;;9.05;6.75;;;1.00;99.90;;;;;;6219991;28;20064;-78
2021/04/07 03:01:26;;;;;;;7.55;6.28;;;-0.10;99.90;;;;;;6186003;28;20033;-78
2021/04/07 03:04:26;;;;;;;8.23;5.45;;;-0.20;99.90;;;;;;6217738;28;20065;-78
2021/04/07 03:07:27;;;;;;;9.55;6.75;;;-0.30;99.90;;;;;;6219422;28;20041;-78
2021/04/07 03:10:28;;;;;;;7.00;5.95;;;-0.30;99.90;;;;;;6214495;28;20049;-78
2021/04/07 03:13:28;;;;;;;8.95;6.72;;;-0.20;99.90;;;;;;6217752;28;20491;-78
2021/04/07 03:16:29;;;;;;;8.27;6.90;;;0.60;99.90;;;;;;6217529;28;20498;-78
2021/04/07 03:19:29;;;;;;;7.40;6.00;;;-0.40;99.90;;;;;;6220108;28;20038;-78
2021/04/07 03:22:30;;;;;;;8.52;5.95;;;-0.40;99.90;;;;;;6185754;28;20384;-78
2021/04/07 03:25:30;;;;;;;8.52;6.15;;;0.20;99.90;;;;;;6217994;28;20030;-78
2021/04/07 03:28:31;;;;;;;9.02;6.07;;;1.00;99.90;;;;;;6217247;28;20050;-78
2021/04/07 03:31:32;;;;;;;11.38;6.75;;;0.70;99.90;;;;;;6217012;28;20022;-78
2021/04/07 03:34:32;;;;;;;7.95;6.72;;;0.80;99.90;;;;;;6219083;28;20030;-78
2021/04/07 03:37:33;;;;;;;8.65;7.10;;;-0.50;99.90;;;;;;6210867;28;20056;-78
2021/04/07 03:40:33;;;;;;;10.27;6.65;;;0.00;99.90;;;;;;6217311;28;20046;-78
2021/04/07 03:43:34;;;;;;;9.93;6.82;;;-0.50;99.90;;;;;;6217119;28;20030;-78
2021/04/07 03:46:35;;;;;;;10.02;7.03;;;0.80;99.90;;;;;;6217363;28;20030;-78
2021/04/07 03:49:35;;;;;;;9.25;6.93;;;-0.20;99.90;;;;;;6217451;28;20468;-78
2021/04/07 03:52:36;;;;;;;12.90;8.23;;;-0.60;99.90;;;;;;6219527;28;20080;-78
2021/04/07 03:55:37;;;;;;;10.35;7.75;;;0.00;99.90;;;;;;6217128;28;20088;-78
2021/04/07 03:58:37;;;;;;;10.40;7.63;;;0.80;99.90;;;;;;6216854;28;20040;-78
2021/04/07 04:01:38;;;;;;;9.70;7.70;;;0.70;99.90;;;;;;6217129;28;20034;-78
2021/04/07 04:04:39;;;;;;;9.32;6.97;;;-0.20;99.90;;;;;;6200613;28;20034;-78
2021/04/07 04:07:39;;;;;;;10.25;6.97;;;-0.50;99.90;;;;;;6217034;28;20072;-78
2021/04/07 04:10:40;;;;;;;7.82;6.95;;;-0.40;99.90;;;;;;6216887;28;20034;-78
2021/04/07 04:13:40;;;;;;;8.90;7.35;;;-0.50;99.90;;;;;;6219322;28;20091;-78
2021/04/07 04:16:42;;;;;;;8.63;6.82;;;-0.40;99.90;;;;;;6218650;28;20046;-78
2021/04/07 04:19:43;;;;;;;9.82;6.50;;;-0.10;99.90;;;;;;6217210;28;20834;-78
2021/04/07 04:22:43;;;;;;;8.85;6.63;;;-0.50;99.90;;;;;;6218483;28;20057;-78
2021/04/07 04:25:44;;;;;;;7.60;6.28;;;-0.50;99.90;;;;;;6200554;28;20453;-78
2021/04/07 04:28:45;;;;;;;9.57;6.63;;;-0.50;99.90;;;;;;6216995;28;20117;-78
2021/04/07 04:31:45;;;;;;;11.55;6.28;;;-0.70;99.90;;;;;;6216478;28;20037;-78
2021/04/07 04:34:46;;;;;;;7.13;6.30;;;;;;;;;;6216928;28;20045;-78
2021/04/07 04:37:47;;;;;;;10.68;6.35;;;;;;;;;;6216524;28;20569;-78
2021/04/07 04:40:48;;;;;;;8.32;6.22;;;-0.10;99.90;;;;;;6219046;28;20030;-78
2021/04/07 04:43:48;;;;;;;7.97;6.47;;;-0.40;99.90;;;;;;6220519;28;20392;-78
2021/04/07 04:46:49;;;;;;;8.40;5.78;;;;;;;;;;6221612;28;20041;-78
2021/04/07 04:49:51;;;;;;;6.80;6.07;;;-0.40;99.90;;;;;;6223093;28;20030;-78
2021/04/07 04:52:51;;;;;;;8.18;5.22;;;-0.20;99.90;;;;;;6221529;28;20030;-78
2021/04/07 04:55:52;;;;;;;10.13;5.90;;;1.20;99.90;;;;;;6204536;28;20069;-78
2021/04/07 04:58:53;;;;;;;9.85;5.57;;;;;;;;;;6221157;28;20034;-78
2021/04/07 05:01:53;;;;;;;7.25;5.68;;;-0.30;99.90;;;;;;6221261;28;20125;-78
2021/04/07 05:04:54;;;;;;;10.48;6.47;;;-0.20;99.90;;;;;;6188953;28;20503;-78
2021/04/07 05:07:55;;;;;;;7.30;6.03;;;-0.40;99.90;;;;;;6220926;28;20457;-78
2021/04/07 05:10:56;;;;;;;7.05;5.50;;;-0.30;99.90;;;;;;6220575;28;20038;-78
2021/04/07 05:13:56;;;;;;;8.50;5.80;;;0.90;99.90;;;;;;6222366;28;20033;-78
2021/04/07 05:16:57;;;;;;;8.10;6.00;;;1.40;99.90;;;;;;6222251;28;20514;-78
2021/04/07 05:19:58;;;;;;;7.47;5.90;;;0.10;99.90;;;;;;6212545;28;20490;-78
2021/04/07 05:22:58;;;;;;;8.32;6.10;;;-0.20;99.90;;;;;;6220744;28;20030;-78
2021/04/07 05:25:59;;;;;;;6.88;5.72;;;-0.30;99.90;;;;;;6204228;28;20554;-78
2021/04/07 05:28:59;;;;;;;7.53;5.72;;;0.90;99.90;;;;;;6220192;28;20034;-78
2021/04/07 05:32:00;;;;;;;7.75;5.70;;;1.20;99.90;;;;;;6221764;28;20046;-78
2021/04/07 05:35:00;;;;;;;8.30;5.85;;;2.10;99.90;;;;;;6220484;28;20036;-78
2021/04/07 05:38:01;;;;;;;6.90;6.20;;;-0.10;99.90;;;;;;6219652;28;20077;-78
2021/04/07 05:41:02;;;;;;;6.95;5.20;;;0.30;99.90;;;;;;6220298;28;21236;-78
2021/04/07 05:44:03;;;;;;;8.48;5.15;;;0.10;99.90;;;;;;6213121;28;20034;-78
2021/04/07 05:47:03;;;;;;;8.90;5.80;;;-0.10;99.90;;;;;;6203764;28;20072;-78
2021/04/07 05:50:05;;;;;;;7.60;5.68;;;0.50;99.90;;;;;;6188601;28;20037;-78
2021/04/07 05:53:06;;;;;;;9.32;6.15;;;-0.10;99.90;;;;;;6219455;28;20493;-78
2021/04/07 05:56:07;;;;;;;10.60;5.60;;;1.00;99.90;;;;;;6218897;28;20026;-78
2021/04/07 05:59:07;;;;;;;6.22;5.40;;;0.50;99.90;;;;;;6219592;28;20034;-78
2021/04/07 06:02:08;;;;;;;8.48;6.10;;;0.40;99.90;;;;;;6219330;28;20834;-78
2021/04/07 06:05:09;;;;;;;7.72;5.53;;;0.20;99.90;;;;;;6221177;28;20026;-78
2021/04/07 06:08:10;;;;;;;8.13;5.40;;;0.20;99.90;;;;;;6219407;28;20038;-78
2021/04/07 06:11:11;;;;;;;7.78;5.55;;;1.30;99.90;;;;;;6219375;28;20149;-78
2021/04/07 06:14:11;;;;;;;8.13;5.95;;;0.40;99.90;;;;;;6221493;28;20136;-78
2021/04/07 06:17:12;;;;;;;7.18;5.30;;;1.40;99.90;;;;;;6219391;28;20677;-78
2021/04/07 06:20:13;;;;;;;8.18;5.03;;;0.40;99.90;;;;;;6220965;28;20069;-78
2021/04/07 06:23:14;;;;;;;8.05;5.45;;;0.50;99.90;;;;;;6219198;28;20044;-78
2021/04/07 06:26:14;;;;;;;7.43;5.65;;;0.60;99.90;;;;;;6218852;28;20036;-78
2021/04/07 06:29:15;;;;;;;7.25;5.10;;;2.10;99.90;;;;;;6218977;28;20034;-78
2021/04/07 06:32:15;;;;;;;5.35;4.70;;;0.90;99.90;;;;;;6203202;28;20033;-79
2021/04/07 06:35:16;;;;;;;5.03;4.40;;;0.90;99.90;;;;;;6187265;28;20061;-79
2021/04/07 06:38:17;;;;;;;4.88;4.38;;;1.00;99.90;;;;;;6218726;28;20054;-78
2021/04/07 06:41:19;;;;;;;7.55;4.40;;;2.00;99.90;;;;;;6214216;28;20110;-78
2021/04/07 06:44:19;;;;;;;5.47;4.17;;;1.60;99.90;;;;;;6187160;28;20674;-79
2021/04/07 06:47:20;;;;;;;5.72;4.30;;;2.30;99.90;;;;;;6218675;28;20029;-78
2021/04/07 06:50:24;;;;;;;7.07;4.22;;;2.60;99.90;;;;;;6218224;28;20129;-79
2021/04/07 06:53:26;;;;;;;8.48;4.97;;;1.50;99.70;;;;;;6192850;28;20067;-78
2021/04/07 06:56:27;;;;;;;5.47;4.65;;;2.30;99.50;;;;;;6202587;28;20064;-78
2021/04/07 06:59:28;;;;;;;6.63;4.90;;;1.60;99.60;;;;;;6186335;28;20472;-78
2021/04/07 07:02:29;;;;;;;9.70;4.40;;;1.60;99.90;;;;;;6218160;28;20428;-78
2021/04/07 07:05:31;;;;;;;5.63;4.28;;;2.80;99.90;;;;;;6218135;28;20030;-78
2021/04/07 07:08:32;;;;;;;6.60;4.47;;;2.60;99.40;;;;;;6218133;28;20522;-78
2021/04/07 07:11:33;;;;;;;7.72;4.10;;;2.00;99.20;;;;;;6218088;28;20034;-78
2021/04/07 07:14:33;;;;;;;7.53;4.82;;;2.40;97.90;;;;;;6220020;28;20054;-78
2021/04/07 07:17:34;;;;;;;8.90;4.40;;;3.10;98.50;;;;;;6217691;28;20030;-78
2021/04/07 07:20:36;;;;;;;6.35;4.30;;;3.60;96.40;;;;;;6219697;28;20412;-78
2021/04/07 07:23:37;;;;;;;8.38;5.75;;;4.20;96.00;;;;;;6218169;28;20452;-78
2021/04/07 07:26:40;;;;;;;8.70;6.07;;;4.20;94.70;;;;;;6217814;28;20847;-78
2021/04/07 07:29:40;;;;;;;5.97;4.78;;;4.40;94.50;;;;;;6205534;28;20070;-78
2021/04/07 07:32:42;;;;;;;10.65;7.07;;;5.10;99.90;;;;;;6218053;28;20630;-79
2021/04/07 07:35:43;;;;;;;5.32;3.67;;;6.10;98.90;;;;;;6198778;28;20030;-79
2021/04/07 07:38:48;;;;;;;6.95;3.75;;;6.30;97.90;;;;;;6193885;28;20508;-79
2021/04/07 07:41:49;;;;;;;4.15;3.75;;;;;;;;;;6217422;28;20087;-80
2021/04/07 07:44:50;;;;;;;3.50;2.92;;;;;;;;;;6217108;28;20094;-80
2021/04/07 07:48:09;;;;;;;5.88;3.85;;;6.50;93.60;;;;;;6219229;28;20120;-80
2021/04/07 07:51:14;;;;;;;5.05;3.30;;;;;;;;;;6202317;28;20502;-80
2021/04/07 07:54:15;;;;;;;3.60;2.72;;;;;;;;;;6219099;28;20415;-80
2021/04/07 07:57:16;;;;;;;4.35;2.90;;;7.80;91.90;;;;;;6217572;28;20026;-80
2021/04/07 08:00:17;;;;;;;4.95;3.20;;;7.20;91.60;;;;;;6200745;28;20030;-80
2021/04/07 08:03:17;;;;;;;6.45;2.70;;;6.30;93.40;;;;;;6199145;28;20530;-80
2021/04/07 08:06:18;;;;;;;4.72;2.95;;;5.70;94.00;;;;;;6200718;28;20034;-80
2021/04/07 08:09:19;;;;;;;5.78;3.38;;;5.20;86.80;;;;;;6216823;28;20471;-80
2021/04/07 08:12:19;;;;;;;4.40;3.05;;;4.20;89.30;;;;;;6216946;28;20046;-80
2021/04/07 08:15:20;;;;;;;7.00;3.47;;;3.80;90.00;;;;;;6217325;28;20026;-79
2021/04/07 08:18:20;;;;;;;7.38;3.95;;;3.50;92.40;;;;;;6218249;28;20672;-79
2021/04/07 08:21:21;;;;;;;7.93;3.65;;;4.30;96.50;;;;;;6223775;28;20075;-79
2021/04/07 08:24:22;;;;;;;7.30;3.72;;;4.40;94.70;;;;;;6211602;28;20065;-79
2021/04/07 08:27:23;;;;;;;4.80;3.60;;;4.00;95.50;;;;;;6221561;28;20415;-79
2021/04/07 08:30:25;;;;;;;5.20;3.72;;;3.50;95.70;;;;;;6189496;28;20502;-79
2021/04/07 08:33:25;;;;;;;6.25;3.67;;;3.20;95.20;;;;;;6223211;28;20053;-79
2021/04/07 08:36:29;;;;;;;4.72;3.92;;;3.60;94.10;;;;;;6189275;28;20040;-79
2021/04/07 08:39:30;;;;;;;7.25;3.90;;;4.70;93.80;;;;;;6221554;28;20054;-80
2021/04/07 08:42:30;;;;;;;7.57;3.80;;;4.10;92.40;;;;;;6221659;28;20101;-79
2021/04/07 08:45:41;;;;;;;5.13;3.25;;;3.30;99.60;;;;;;6223156;28;20041;-79
2021/04/07 08:48:42;;;;;;;5.55;3.80;;;3.10;93.30;;;;;;6205457;28;20034;-79
2021/04/07 08:51:42;;;;;;;4.00;3.42;;;4.40;95.20;;;;;;6221338;28;20045;-79
2021/04/07 08:54:52;;;;;;;5.80;3.92;;;3.80;95.10;;;;;;6221464;28;20029;-79
2021/04/07 08:58:03;;;;;;;3.72;3.33;;;4.30;95.40;;;;;;6221411;28;20029;-80
2021/04/07 09:01:04;;;;;;;5.88;4.10;;;3.80;95.60;;;;;;6221408;28;20042;-79
2021/04/07 09:04:08;;;;;;;4.65;4.13;;;4.60;94.30;;;;;;6220846;28;20037;-79
2021/04/07 09:07:11;;;;;;;5.90;3.83;;;5.40;93.40;;;;;;6222854;28;20034;-80
2021/04/07 09:10:17;;;;;;;5.50;3.65;;;6.00;97.50;;;;;;6220686;28;20030;-79
2021/04/07 09:13:24;;;;;;;4.78;3.35;;;5.90;89.00;;;;;;6222591;28;20420;-79
2021/04/07 09:16:40;;;;;;;4.68;3.25;;;5.50;89.40;;;;;;6237398;28;20076;-80
2021/04/07 09:19:41;;;;;;;6.80;3.33;;;4.80;99.90;;;;;;6224371;28;20048;-79
2021/04/07 09:22:47;;;;;;;4.00;3.00;;;5.10;92.50;;;;;;6222213;28;20030;-79
2021/04/07 09:25:50;;;;;;;3.20;2.70;;;5.50;91.80;;;;;;6220638;28;20092;-79
2021/04/07 09:28:52;;;;;;;3.47;3.00;;;5.80;88.60;;;;;;6220041;28;20030;-79
2021/04/07 09:31:53;;;;;;;6.13;3.28;;;6.50;85.00;;;;;;6219386;28;20052;-79
2021/04/07 09:34:53;;;;;;;5.00;3.10;;;7.40;83.70;;;;;;6220392;28;20033;-78
2021/04/07 09:37:54;;;;;;;5.10;3.38;;;6.50;84.10;;;;;;6219905;28;20058;-79
2021/04/07 09:41:05;;;;;;;7.07;3.53;;;5.70;84.50;;;;;;6220181;28;20030;-79
2021/04/07 09:44:07;;;;;;;6.05;4.05;;;4.80;86.40;;;;;;6204980;28;20033;-79
2021/04/07 09:47:07;;;;;;;4.43;3.53;;;4.80;91.30;;;;;;6220014;28;20026;-79
2021/04/07 09:50:09;;;;;;;5.70;3.78;;;3.60;92.30;;;;;;6219621;28;20045;-79
2021/04/07 09:53:09;;;;;;;4.53;3.78;;;3.60;94.30;;;;;;6188250;28;20038;-80
2021/04/07 09:56:10;;;;;;;5.72;3.83;;;3.90;94.40;;;;;;6221441;28;20077;-80
2021/04/07 09:59:11;;;;;;;5.35;3.40;;;;;;;;;;6220129;28;20551;-80
2021/04/07 10:02:24;;;;;;;5.38;3.40;;;5.00;92.70;;;;;;6219675;28;20038;-80
2021/04/07 10:05:28;;;;;;;3.83;3.03;;;5.40;88.50;;;;;;6221419;28;20839;-79
2021/04/07 10:08:28;;;;;;;4.28;2.95;;;5.30;87.40;;;;;;6218202;28;20041;-79
2021/04/07 10:11:29;;;;;;;3.95;2.80;;;5.20;96.00;;;;;;6219102;28;20120;-79
2021/04/07 10:14:30;;;;;;;4.53;3.03;;;6.20;89.50;;;;;;6203909;28;20022;-79
2021/04/07 10:17:32;;;;;;;5.78;3.50;;;7.90;88.10;;;;;;6219230;28;20393;-79
2021/04/07 10:20:32;;;;;;;6.50;3.70;;;7.30;82.70;;;;;;6187068;28;20034;-80
2021/04/07 10:23:33;;;;;;;4.35;3.20;;;7.50;80.00;;;;;;6218991;28;20030;-80
2021/04/07 10:26:43;;;;;;;2.95;2.50;;;7.30;92.40;;;;;;6219223;28;20096;-80
2021/04/07 10:29:44;;;;;;;7.55;3.30;;;7.50;79.90;;;;;;6218921;28;20049;-79
2021/04/07 10:32:45;;;;;;;5.25;2.75;;;5.90;94.30;;;;;;6219144;28;20026;-79
2021/04/07 10:35:46;;;;;;;6.88;3.25;;;5.70;94.70;;;;;;6202703;28;20638;-79
2021/04/07 10:38:47;;;;;;;6.07;3.92;;;5.70;84.40;;;;;;6218721;28;20090;-78
2021/04/07 10:41:47;;;;;;;5.97;3.47;;;5.80;95.00;;;;;;6220482;28;20025;-79
2021/04/07 10:45:03;;;;;;;7.80;4.32;;;6.70;95.10;;;;;;6218403;28;20385;-79
2021/04/07 10:48:05;;;;;;;6.47;4.07;;;6.90;86.00;;;;;;6202384;28;20030;-79
2021/04/07 10:51:05;;;;;;;5.53;3.45;;;6.80;93.50;;;;;;6201936;28;20571;-79
2021/04/07 10:54:09;;;;;;;10.32;3.53;;;6.60;93.70;;;;;;6219020;28;20030;-79
2021/04/07 10:57:11;;;;;;;4.63;3.28;;;6.00;92.90;;;;;;6220360;28;20025;-79
2021/04/07 11:00:26;;;;;;;4.97;2.97;;;5.90;90.20;;;;;;6187240;28;20061;-79
2021/04/07 11:03:34;;;;;;;3.20;2.80;;;5.60;77.50;;;;;;6218522;28;20025;-79
2021/04/07 11:06:35;;;;;;;5.35;2.95;;;;;;;;;;6218275;28;20034;-79
2021/04/07 11:09:37;;;;;;;4.07;2.75;;;;;;;;;;6218252;28;20037;-79
2021/04/07 11:12:39;;;;;;;4.25;3.85;;;6.30;90.80;;;;;;6219822;28;20033;-79
2021/04/07 11:15:40;;;;;;;4.17;2.80;;;;;;;;;;6207221;28;20076;-79
2021/04/07 11:18:51;;;;;;;5.32;2.80;;;5.90;90.90;;;;;;6219594;28;20105;-78
2021/04/07 11:21:52;;;;;;;4.95;3.33;;;;;;;;;;6194062;28;20034;-79
2021/04/07 11:24:55;;;;;;;6.45;3.22;;;;;;;;;;6201738;28;20065;-79
2021/04/07 11:27:58;;;;;;;5.18;3.10;;;;;;;;;;6219426;28;20028;-79
2021/04/07 11:31:05;;;;;;;4.20;3.05;;;;;;;;;;6217582;28;20044;-79
2021/04/07 11:34:09;;;;;;;4.65;3.35;;;;;;;;;;6219498;28;20026;-79
2021/04/07 11:37:16;;;;;;;5.15;3.30;;;;;;;;;;6219661;28;20026;-79
2021/04/07 11:43:46;;;;;;;4.38;2.90;;;6.70;78.80;;;;;;6195213;28;20030;-79
2021/04/07 11:46:47;;;;;;;2.80;2.60;;;6.40;91.40;;;;;;6193398;28;20041;-79
2021/04/07 11:49:47;;;;;;;3.45;2.50;;;6.70;80.20;;;;;;6193479;28;20030;-79
2021/04/07 11:52:48;;;;;;;4.80;2.30;;;6.30;79.40;;;;;;6192472;28;20084;-79
2021/04/07 11:55:49;;;;;;;3.88;2.50;;;;;;;;;;6193397;28;20060;-79
2021/04/07 11:58:49;;;;;;;2.90;2.40;;;6.50;76.60;;;;;;6193471;28;20034;-79
2021/04/07 12:01:51;;;;;;;6.28;2.45;;;6.90;75.90;;;;;;6194378;28;20461;-79
2021/04/07 12:04:52;;;;;;;6.32;2.17;;;6.90;76.60;;;;;;6177124;28;20031;-80
2021/04/07 12:07:53;;;;;;;4.35;2.70;;;7.00;73.20;;;;;;6194439;28;20041;-79
2021/04/07 12:10:57;;;;;;;2.97;2.28;;;7.30;75.20;;;;;;6194250;28;20665;-79
2021/04/07 12:13:57;;;;;;;3.55;2.10;;;7.70;76.40;;;;;;6208860;28;20027;-79
2021/04/07 12:16:58;;;;;;;4.53;2.17;;;6.60;76.20;;;;;;6176956;28;20053;-79
2021/04/07 12:19:58;;;;;;;2.80;2.17;;;6.50;75.80;;;;;;6208737;28;20038;-79
2021/04/07 12:23:00;;;;;;;4.13;2.53;;;6.30;74.90;;;;;;6177082;28;20077;-79
2021/04/07 12:26:01;;;;;;;4.03;2.70;;;7.00;74.30;;;;;;6192752;28;20030;-79
2021/04/07 12:29:03;;;;;;;3.50;2.65;;;6.70;76.10;;;;;;6192520;28;20754;-79
2021/04/07 12:32:04;;;;;;;7.45;2.33;;;6.10;90.70;;;;;;6193018;28;20038;-79
2021/04/07 12:35:09;;;;;;;2.65;2.30;;;6.00;78.50;;;;;;6192707;28;20389;-79
2021/04/07 12:38:10;;;;;;;6.97;2.20;;;5.90;80.80;;;;;;6197311;28;20144;-79
2021/04/07 12:41:20;;;;;;;4.10;2.03;;;6.60;79.70;;;;;;6200313;28;20038;-79
2021/04/07 12:44:21;;;;;;;4.78;2.28;;;5.70;92.70;;;;;;6202269;28;20030;-79
2021/04/07 12:47:22;;;;;;;3.90;2.30;;;5.80;79.40;;;;;;6200610;28;20539;-79
2021/04/07 12:50:22;;;;;;;6.07;2.47;;;5.80;82.20;;;;;;6200208;28;20129;-79
2021/04/07 12:53:23;;;;;;;10.63;2.80;;;5.40;81.30;;;;;;6199870;28;20026;-79
2021/04/07 12:56:24;;;;;;;4.40;2.40;;;5.20;81.40;;;;;;6207528;28;20452;-79
2021/04/07 12:59:25;;;;;;;5.18;2.38;;;5.20;80.80;;;;;;6216840;28;20033;-79
2021/04/07 13:02:25;;;;;;;4.70;2.90;;;5.30;80.80;;;;;;6216357;28;20052;-79
2021/04/07 13:05:26;;;;;;;4.80;2.25;;;5.60;80.60;;;;;;6188160;28;20457;-79
2021/04/07 13:08:27;;;;;;;3.65;2.08;;;6.10;80.40;;;;;;6220821;28;20076;-79
2021/04/07 13:11:27;;;;;;;4.75;2.15;;;6.10;79.40;;;;;;6220603;28;20084;-79
2021/04/07 13:14:29;;;;;;;4.35;2.30;;;6.10;80.40;;;;;;6220831;28;20038;-79
2021/04/07 13:17:29;;;;;;;5.40;2.17;;;6.60;81.00;;;;;;6188954;28;20026;-79
2021/04/07 13:20:32;;;;;;;4.22;2.30;;;7.10;80.40;;;;;;6222443;28;20438;-79
2021/04/07 13:23:32;;;;;;;2.60;2.30;;;6.10;81.40;;;;;;6222461;28;20030;-79
2021/04/07 13:26:33;;;;;;;5.55;2.40;;;5.80;76.60;;;;;;6220499;28;20038;-79
2021/04/07 13:29:33;;;;;;;3.95;2.20;;;5.30;80.00;;;;;;6221861;28;20033;-79
2021/04/07 13:32:36;;;;;;;2.90;2.10;;;5.70;81.70;;;;;;6220434;28;20034;-79
2021/04/07 13:35:47;;;;;;;4.38;2.38;;;5.90;79.50;;;;;;6221816;28;20026;-79
2021/04/07 13:38:58;;;;;;;5.85;2.55;;;5.70;79.50;;;;;;6220548;28;20452;-79
2021/04/07 13:45:21;;;;;;;5.65;2.50;;;5.00;81.70;;;;;;6193104;28;20460;-79
2021/04/07 13:48:23;;;;;;;3.80;2.17;;;5.10;80.80;;;;;;6218264;28;20415;-79
2021/04/07 13:51:24;;;;;;;9.90;3.58;;;5.10;84.60;;;;;;6188261;28;20092;-79
2021/04/07 13:54:24;;;;;;;4.95;2.63;;;4.20;94.60;;;;;;6203950;28;20080;-79
2021/04/07 13:57:29;;;;;;;4.75;2.80;;;4.10;87.60;;;;;;6213686;28;20030;-79
2021/04/07 14:00:30;;;;;;;6.72;2.72;;;4.50;87.60;;;;;;6219367;28;20117;-79
2021/04/07 14:03:31;;;;;;;3.35;2.40;;;4.20;91.20;;;;;;6188064;28;20040;-79
2021/04/07 14:06:31;;;;;;;6.65;2.40;;;4.20;99.90;;;;;;6219359;28;20084;-79
2021/04/07 14:09:33;;;;;;;16.60;9.43;;;4.50;92.50;;;;;;6221029;28;20084;-79
2021/04/07 14:12:41;;;;;;;7.47;4.80;;;5.30;91.90;;;;;;6219421;28;20464;-79
2021/04/07 14:15:42;;;;;;;23.52;11.10;;;5.20;90.90;;;;;;6219073;28;20037;-79
2021/04/07 14:18:42;;;;;;;7.93;3.17;;;4.60;91.20;;;;;;6218869;28;20034;-79
2021/04/07 14:21:43;;;;;;;6.03;2.50;;;4.40;90.60;;;;;;6219476;28;20030;-79
2021/04/07 14:24:43;;;;;;;3.70;3.15;;;4.60;91.20;;;;;;6219058;28;20049;-79
2021/04/07 14:27:44;;;;;;;5.38;2.65;;;4.20;91.40;;;;;;6218944;28;20061;-79
2021/04/07 14:30:45;;;;;;;7.18;3.00;;;4.00;91.80;;;;;;6218888;28;20378;-79
2021/04/07 14:33:46;;;;;;;8.60;3.60;;;3.60;99.90;;;;;;6220145;28;20037;-79
2021/04/07 14:36:50;;;;;;;7.55;4.78;;;3.30;99.90;;;;;;6218354;28;20112;-79
2021/04/07 14:39:50;;;;;;;8.20;3.40;;;3.30;96.30;;;;;;6218663;28;20145;-79
2021/04/07 14:42:51;;;;;;;7.65;3.42;;;3.90;97.90;;;;;;6218754;28;20026;-79
2021/04/07 14:45:52;;;;;;;5.43;2.72;;;3.20;98.30;;;;;;6220385;28;20381;-79
2021/04/07 14:48:54;;;;;;;4.50;3.15;;;3.70;98.10;;;;;;6218847;28;20037;-79
2021/04/07 14:52:02;;;;;;;6.53;3.60;;;3.60;98.60;;;;;;6218122;28;20042;-79
2021/04/07 14:55:05;;;;;;;6.60;3.67;;;3.90;98.80;;;;;;6218573;28;20040;-79
2021/04/07 14:58:06;;;;;;;5.50;3.28;;;3.00;99.80;;;;;;6218432;28;20111;-79
2021/04/07 15:01:07;;;;;;;10.32;3.67;;;2.90;99.90;;;;;;6215645;28;20395;-79
2021/04/07 15:04:07;;;;;;;8.57;4.68;;;3.70;99.90;;;;;;6218299;28;20034;-79
2021/04/07 15:07:08;;;;;;;7.65;4.57;;;3.00;99.90;;;;;;6218521;28;20080;-79
2021/04/07 15:10:09;;;;;;;5.95;2.85;;;2.90;99.90;;;;;;6201986;28;20121;-80
2021/04/07 15:13:10;;;;;;;3.58;2.70;;;;;;;;;;6219466;28;20040;-79
2021/04/07 15:16:11;;;;;;;7.03;3.13;;;2.50;99.90;;;;;;6226104;28;20453;-79
2021/04/07 15:19:15;;;;;;;3.88;3.28;;;2.50;99.90;;;;;;6223782;28;20030;-79
2021/04/07 15:22:19;;;;;;;5.22;3.15;;;2.40;99.90;;;;;;6210707;28;20029;-79
2021/04/07 15:25:31;;;;;;;5.47;3.08;;;;;;;;;;6197887;28;20080;-78
2021/04/07 15:28:42;;;;;;;4.95;3.20;;;;;;;;;;6219663;28;20033;-79
2021/04/07 15:31:43;;;;;;;7.10;3.40;;;2.30;99.90;;;;;;6219122;28;20042;-79
2021/04/07 15:34:44;;;;;;;5.40;3.00;;;;;;;;;;6201420;28;20459;-79
2021/04/07 15:37:45;;;;;;;5.97;3.88;;;;;;;;;;6233807;28;20113;-79
2021/04/07 15:40:46;;;;;;;5.85;3.80;;;;;;;;;;6219266;28;20046;-79
2021/04/07 15:43:47;;;;;;;5.35;3.83;;;;;;;;;;6219244;28;20049;-80
2021/04/07 15:46:48;;;;;;;5.68;3.85;;;;;;;;;;6218753;28;20026;-79
2021/04/07 15:49:49;;;;;;;5.53;3.55;;;;;;;;;;6217115;28;20061;-79
2021/04/07 15:52:51;;;;;;;7.05;3.50;;;;;;;;;;6217102;28;20061;-79
2021/04/07 15:55:51;;;;;;;5.10;3.40;;;2.70;99.90;;;;;;6233311;28;20101;-79
2021/04/07 15:58:52;;;;;;;5.03;3.60;;;4.00;99.90;;;;;;6217069;28;20033;-79
2021/04/07 16:01:53;;;;;;;5.82;3.50;;;3.20;99.90;;;;;;6217003;28;20467;-79
2021/04/07 16:04:54;;;;;;;7.93;4.65;;;2.90;99.90;;;;;;6217150;28;20625;-78
2021/04/07 16:07:55;;;;;;;6.60;3.92;;;3.70;99.90;;;;;;6185522;28;20092;-78
2021/04/07 16:10:56;;;;;;;6.65;4.53;;;3.40;99.90;;;;;;6216844;28;20064;-78
2021/04/07 16:13:57;;;;;;;13.20;7.53;;;3.80;99.90;;;;;;6216980;28;20112;-78